RU-0403 weather

Yelizavetinskaya Airstrip
Yelizavetinskaya, Krasnodar Krai, Russia

Public forecast

Using degrees Celsius for public forecast. Weather courtesy of forecast.io.

Closest aviation weather report (METAR) to Yelizavetinskaya Airstrip

Closest report is Krasnodar Pashkovsky International Airport, 15.8 nm (29.2 km) E. Retrieved 2020/08/04 14:30 UTC (3 minutes ago):

URKK 041430Z 07006MPS CAVOK 30/10 Q1011 R05R/CLRD70 NOSIG RMK QFE755

Closest aviation forecast (TAF) to Yelizavetinskaya Airstrip

Closest forecast is Krasnodar Pashkovsky International Airport, 15.8 nm (29.2 km) E. Retrieved 2020/08/04 15:21 UTC (0 seconds ago):

TAF URKK 041355Z 0415/0515 06006G13MPS CAVOK TEMPO 0415/0506 10003G08MPS